sensor_id;sensor_type;location;lat;lon;timestamp;pressure;altitude;pressure_sealevel;temperature;humidity
23118;BME280;11728;50.624;6.014;2023-05-25T00:01:29;99084.38;;;11.55;69.17
23118;BME280;11728;50.624;6.014;2023-05-25T00:06:49;99087.19;;;11.40;69.82
23118;BME280;11728;50.624;6.014;2023-05-25T00:12:10;99095.25;;;11.31;70.19
23118;BME280;11728;50.624;6.014;2023-05-25T00:17:31;99096.28;;;11.18;70.68
23118;BME280;11728;50.624;6.014;2023-05-25T00:22:53;99088.50;;;11.09;71.31
23118;BME280;11728;50.624;6.014;2023-05-25T00:28:15;99091.13;;;11.08;71.60
23118;BME280;11728;50.624;6.014;2023-05-25T00:33:36;99092.03;;;11.05;71.87
23118;BME280;11728;50.624;6.014;2023-05-25T00:38:57;99084.16;;;11.01;72.21
23118;BME280;11728;50.624;6.014;2023-05-25T00:44:17;99081.56;;;10.96;72.32
23118;BME280;11728;50.624;6.014;2023-05-25T00:49:40;99079.00;;;10.93;72.25
23118;BME280;11728;50.624;6.014;2023-05-25T00:55:02;99074.66;;;10.86;72.80
23118;BME280;11728;50.624;6.014;2023-05-25T01:00:23;99081.75;;;10.81;73.18
23118;BME280;11728;50.624;6.014;2023-05-25T01:05:46;99067.75;;;10.73;73.70
23118;BME280;11728;50.624;6.014;2023-05-25T01:11:10;99074.94;;;10.60;73.97
23118;BME280;11728;50.624;6.014;2023-05-25T01:16:31;99082.13;;;10.46;74.83
23118;BME280;11728;50.624;6.014;2023-05-25T01:22:00;99076.16;;;10.27;75.47
23118;BME280;11728;50.624;6.014;2023-05-25T01:27:33;99075.41;;;10.12;76.17
23118;BME280;11728;50.624;6.014;2023-05-25T01:32:55;99071.09;;;9.99;76.94
23118;BME280;11728;50.624;6.014;2023-05-25T01:38:16;99069.41;;;9.91;77.22
23118;BME280;11728;50.624;6.014;2023-05-25T01:43:37;99071.22;;;9.81;77.36
23118;BME280;11728;50.624;6.014;2023-05-25T01:49:11;99073.91;;;9.75;77.93
23118;BME280;11728;50.624;6.014;2023-05-25T02:00:21;99076.63;;;9.65;77.47
23118;BME280;11728;50.624;6.014;2023-05-25T02:05:43;99078.41;;;9.60;77.44
23118;BME280;11728;50.624;6.014;2023-05-25T02:11:05;99081.09;;;9.52;77.56
23118;BME280;11728;50.624;6.014;2023-05-25T02:16:26;99075.84;;;9.49;77.45
23118;BME280;11728;50.624;6.014;2023-05-25T02:21:46;99075.91;;;9.42;77.38
23118;BME280;11728;50.624;6.014;2023-05-25T02:27:07;99072.44;;;9.32;77.33
23118;BME280;11728;50.624;6.014;2023-05-25T02:32:28;99075.09;;;9.29;77.77
23118;BME280;11728;50.624;6.014;2023-05-25T02:37:49;99077.75;;;9.23;77.97
23118;BME280;11728;50.624;6.014;2023-05-25T02:43:09;99076.03;;;9.17;78.94
23118;BME280;11728;50.624;6.014;2023-05-25T02:48:30;99073.41;;;9.12;79.36
23118;BME280;11728;50.624;6.014;2023-05-25T02:53:51;99085.72;;;9.09;79.30
23118;BME280;11728;50.624;6.014;2023-05-25T02:59:12;99084.88;;;9.01;79.72
23118;BME280;11728;50.624;6.014;2023-05-25T03:04:32;99087.53;;;8.92;80.17
23118;BME280;11728;50.624;6.014;2023-05-25T03:09:56;99091.06;;;8.85;80.79
23118;BME280;11728;50.624;6.014;2023-05-25T03:15:18;99100.75;;;8.80;80.28
23118;BME280;11728;50.624;6.014;2023-05-25T03:20:39;99096.38;;;8.77;80.53
23118;BME280;11728;50.624;6.014;2023-05-25T03:26:00;99099.03;;;8.70;80.07
23118;BME280;11728;50.624;6.014;2023-05-25T03:31:22;99099.91;;;8.64;80.61
23118;BME280;11728;50.624;6.014;2023-05-25T03:36:42;99106.03;;;8.63;80.65
23118;BME280;11728;50.624;6.014;2023-05-25T03:42:05;99114.84;;;8.59;80.58
23118;BME280;11728;50.624;6.014;2023-05-25T03:47:26;99117.47;;;8.55;80.98
23118;BME280;11728;50.624;6.014;2023-05-25T03:52:47;99123.66;;;8.51;81.58
23118;BME280;11728;50.624;6.014;2023-05-25T03:58:08;99127.13;;;8.53;82.31
23118;BME280;11728;50.624;6.014;2023-05-25T04:03:29;99137.66;;;8.56;82.65
23118;BME280;11728;50.624;6.014;2023-05-25T04:08:52;99147.31;;;8.61;82.70
23118;BME280;11728;50.624;6.014;2023-05-25T04:14:12;99145.53;;;8.68;82.46
23118;BME280;11728;50.624;6.014;2023-05-25T04:19:33;99161.34;;;8.80;82.79
23118;BME280;11728;50.624;6.014;2023-05-25T04:24:54;99167.41;;;8.92;83.08
23118;BME280;11728;50.624;6.014;2023-05-25T04:30:15;99164.75;;;9.09;82.15
23118;BME280;11728;50.624;6.014;2023-05-25T04:35:36;99177.00;;;9.18;82.22
23118;BME280;11728;50.624;6.014;2023-05-25T04:40:56;99185.75;;;9.31;81.68
23118;BME280;11728;50.624;6.014;2023-05-25T04:46:17;99185.72;;;9.47;80.68
23118;BME280;11728;50.624;6.014;2023-05-25T04:51:38;99196.19;;;9.64;79.85
23118;BME280;11728;50.624;6.014;2023-05-25T04:57:00;99187.28;;;9.78;79.06
23118;BME280;11728;50.624;6.014;2023-05-25T05:02:21;99188.09;;;9.95;78.70
23118;BME280;11728;50.624;6.014;2023-05-25T05:07:42;99195.88;;;10.19;77.89
23118;BME280;11728;50.624;6.014;2023-05-25T05:13:03;99189.50;;;10.47;77.55
23118;BME280;11728;50.624;6.014;2023-05-25T05:18:23;99189.25;;;10.73;76.67
23118;BME280;11728;50.624;6.014;2023-05-25T05:23:44;99194.41;;;10.91;75.61
23118;BME280;11728;50.624;6.014;2023-05-25T05:29:05;99186.34;;;11.05;74.54
23118;BME280;11728;50.624;6.014;2023-05-25T05:34:26;99191.47;;;11.20;74.37
23118;BME280;11728;50.624;6.014;2023-05-25T05:39:47;99197.13;;;11.65;73.85
23118;BME280;11728;50.624;6.014;2023-05-25T05:45:08;99201.75;;;12.13;73.12
23118;BME280;11728;50.624;6.014;2023-05-25T05:50:29;99199.34;;;12.53;72.49
23118;BME280;11728;50.624;6.014;2023-05-25T05:55:49;99203.09;;;12.95;72.10
23118;BME280;11728;50.624;6.014;2023-05-25T06:01:14;99209.41;;;13.36;72.02
23118;BME280;11728;50.624;6.014;2023-05-25T06:06:36;99213.81;;;13.79;71.08
23118;BME280;11728;50.624;6.014;2023-05-25T06:11:58;99218.97;;;14.27;70.28
23118;BME280;11728;50.624;6.014;2023-05-25T06:17:18;99214.53;;;14.64;69.58
23118;BME280;11728;50.624;6.014;2023-05-25T06:22:39;99217.31;;;14.96;68.77
23118;BME280;11728;50.624;6.014;2023-05-25T06:28:00;99215.28;;;15.40;68.00
23118;BME280;11728;50.624;6.014;2023-05-25T06:33:21;99214.78;;;15.88;66.76
23118;BME280;11728;50.624;6.014;2023-05-25T06:38:42;99211.16;;;16.19;65.69
23118;BME280;11728;50.624;6.014;2023-05-25T06:44:03;99224.41;;;16.51;64.33
23118;BME280;11728;50.624;6.014;2023-05-25T06:49:23;99219.88;;;16.81;62.92
23118;BME280;11728;50.624;6.014;2023-05-25T06:54:44;99229.31;;;17.16;62.23
23118;BME280;11728;50.624;6.014;2023-05-25T07:00:06;99219.69;;;17.63;60.32
23118;BME280;11728;50.624;6.014;2023-05-25T07:05:31;99226.66;;;18.14;59.01
23118;BME280;11728;50.624;6.014;2023-05-25T07:10:52;99230.16;;;18.61;57.33
23118;BME280;11728;50.624;6.014;2023-05-25T07:16:13;99232.03;;;19.02;56.42
23118;BME280;11728;50.624;6.014;2023-05-25T07:21:33;99230.91;;;19.29;55.24
23118;BME280;11728;50.624;6.014;2023-05-25T07:26:54;99236.09;;;19.73;54.35
23118;BME280;11728;50.624;6.014;2023-05-25T07:32:15;99228.63;;;20.19;52.04
23118;BME280;11728;50.624;6.014;2023-05-25T07:37:36;99237.00;;;20.69;49.80
23118;BME280;11728;50.624;6.014;2023-05-25T07:42:56;99233.00;;;21.31;48.71
23118;BME280;11728;50.624;6.014;2023-05-25T07:48:17;99242.13;;;21.79;47.35
23118;BME280;11728;50.624;6.014;2023-05-25T07:53:38;99237.69;;;22.44;45.32
23118;BME280;11728;50.624;6.014;2023-05-25T07:58:59;99246.66;;;22.91;42.82
23118;BME280;11728;50.624;6.014;2023-05-25T08:04:20;99241.75;;;23.59;43.34
23118;BME280;11728;50.624;6.014;2023-05-25T08:09:41;99241.38;;;23.94;41.06
23118;BME280;11728;50.624;6.014;2023-05-25T08:15:02;99246.19;;;24.60;40.15
23118;BME280;11728;50.624;6.014;2023-05-25T08:20:23;99231.53;;;25.04;39.29
23118;BME280;11728;50.624;6.014;2023-05-25T08:25:47;99242.56;;;25.01;37.84
23118;BME280;11728;50.624;6.014;2023-05-25T08:31:08;99242.91;;;25.23;38.32
23118;BME280;11728;50.624;6.014;2023-05-25T08:36:28;99240.31;;;25.87;37.01
23118;BME280;11728;50.624;6.014;2023-05-25T08:41:49;99243.84;;;26.39;35.87
23118;BME280;11728;50.624;6.014;2023-05-25T08:47:11;99241.88;;;26.65;36.06
23118;BME280;11728;50.624;6.014;2023-05-25T08:52:34;99247.91;;;26.81;34.85
23118;BME280;11728;50.624;6.014;2023-05-25T08:58:05;99249.66;;;27.54;34.40
23118;BME280;11728;50.624;6.014;2023-05-25T09:03:28;99254.88;;;27.80;33.05
23118;BME280;11728;50.624;6.014;2023-05-25T09:08:50;99248.22;;;28.18;32.93
23118;BME280;11728;50.624;6.014;2023-05-25T09:14:11;99251.53;;;28.11;31.67
23118;BME280;11728;50.624;6.014;2023-05-25T09:19:34;99246.56;;;28.72;32.57
23118;BME280;11728;50.624;6.014;2023-05-25T09:24:55;99250.25;;;29.26;31.18
23118;BME280;11728;50.624;6.014;2023-05-25T09:30:16;99251.72;;;29.52;30.11
23118;BME280;11728;50.624;6.014;2023-05-25T09:35:38;99242.28;;;29.56;29.91
23118;BME280;11728;50.624;6.014;2023-05-25T09:40:59;99245.91;;;29.76;29.08
23118;BME280;11728;50.624;6.014;2023-05-25T09:46:20;99244.47;;;30.04;29.37
23118;BME280;11728;50.624;6.014;2023-05-25T09:51:41;99246.66;;;30.30;28.23
23118;BME280;11728;50.624;6.014;2023-05-25T09:57:02;99246.13;;;30.36;27.11
23118;BME280;11728;50.624;6.014;2023-05-25T10:02:25;99247.47;;;30.21;27.91
23118;BME280;11728;50.624;6.014;2023-05-25T10:07:46;99243.81;;;30.52;28.44
23118;BME280;11728;50.624;6.014;2023-05-25T10:13:07;99250.59;;;31.08;28.60
23118;BME280;11728;50.624;6.014;2023-05-25T10:18:31;99254.91;;;30.60;28.33
23118;BME280;11728;50.624;6.014;2023-05-25T10:24:02;99250.91;;;30.64;28.46
23118;BME280;11728;50.624;6.014;2023-05-25T10:29:24;99251.59;;;30.86;28.54
23118;BME280;11728;50.624;6.014;2023-05-25T10:34:47;99258.13;;;30.24;28.56
23118;BME280;11728;50.624;6.014;2023-05-25T10:40:10;99259.19;;;30.53;28.65
23118;BME280;11728;50.624;6.014;2023-05-25T10:45:33;99253.19;;;30.89;27.57
23118;BME280;11728;50.624;6.014;2023-05-25T10:50:54;99256.19;;;30.86;26.86
23118;BME280;11728;50.624;6.014;2023-05-25T10:56:14;99264.94;;;31.10;27.20
23118;BME280;11728;50.624;6.014;2023-05-25T11:01:49;99256.19;;;31.16;27.35
23118;BME280;11728;50.624;6.014;2023-05-25T11:07:14;99252.47;;;31.65;27.22
23118;BME280;11728;50.624;6.014;2023-05-25T11:12:37;99260.41;;;32.15;26.11
23118;BME280;11728;50.624;6.014;2023-05-25T11:17:59;99255.63;;;31.70;26.58
23118;BME280;11728;50.624;6.014;2023-05-25T11:23:23;99253.28;;;31.47;26.49
23118;BME280;11728;50.624;6.014;2023-05-25T11:28:45;99247.59;;;31.88;26.92
23118;BME280;11728;50.624;6.014;2023-05-25T11:34:06;99242.97;;;32.45;25.90
23118;BME280;11728;50.624;6.014;2023-05-25T11:39:29;99231.75;;;31.63;26.30
23118;BME280;11728;50.624;6.014;2023-05-25T11:44:51;99234.94;;;32.15;26.30
23118;BME280;11728;50.624;6.014;2023-05-25T11:50:16;99229.47;;;32.15;26.50
23118;BME280;11728;50.624;6.014;2023-05-25T11:55:36;99234.00;;;31.48;26.80
23118;BME280;11728;50.624;6.014;2023-05-25T12:01:17;99243.75;;;29.91;27.90
23118;BME280;11728;50.624;6.014;2023-05-25T12:06:38;99235.75;;;30.71;28.05
23118;BME280;11728;50.624;6.014;2023-05-25T12:12:01;99221.06;;;31.50;27.01
23118;BME280;11728;50.624;6.014;2023-05-25T12:17:23;99231.09;;;31.22;27.14
23118;BME280;11728;50.624;6.014;2023-05-25T12:22:44;99230.59;;;29.33;28.50
23118;BME280;11728;50.624;6.014;2023-05-25T12:28:13;99223.13;;;30.49;28.44
23118;BME280;11728;50.624;6.014;2023-05-25T12:33:34;99219.22;;;31.02;27.37
23118;BME280;11728;50.624;6.014;2023-05-25T12:38:57;99226.44;;;30.12;28.08
23118;BME280;11728;50.624;6.014;2023-05-25T12:49:44;99227.56;;;30.71;26.94
23118;BME280;11728;50.624;6.014;2023-05-25T13:00:48;99220.09;;;31.03;26.98
23118;BME280;11728;50.624;6.014;2023-05-25T13:06:09;99225.06;;;31.37;26.83
23118;BME280;11728;50.624;6.014;2023-05-25T13:11:30;99221.69;;;31.63;26.71
23118;BME280;11728;50.624;6.014;2023-05-25T13:16:51;99211.31;;;31.09;26.91
23118;BME280;11728;50.624;6.014;2023-05-25T13:22:12;99213.81;;;30.52;27.78
23118;BME280;11728;50.624;6.014;2023-05-25T13:27:33;99212.91;;;29.70;28.38
23118;BME280;11728;50.624;6.014;2023-05-25T13:32:55;99214.72;;;28.07;30.27
23118;BME280;11728;50.624;6.014;2023-05-25T13:38:16;99213.81;;;27.38;31.88
23118;BME280;11728;50.624;6.014;2023-05-25T13:43:38;99212.75;;;26.92;32.92
23118;BME280;11728;50.624;6.014;2023-05-25T13:48:59;99224.00;;;27.11;32.70
23118;BME280;11728;50.624;6.014;2023-05-25T13:54:19;99213.91;;;27.13;32.92
23118;BME280;11728;50.624;6.014;2023-05-25T13:59:41;99205.59;;;26.91;32.35
23118;BME280;11728;50.624;6.014;2023-05-25T14:05:01;99210.16;;;26.43;32.79
23118;BME280;11728;50.624;6.014;2023-05-25T14:10:22;99220.84;;;26.32;33.47
23118;BME280;11728;50.624;6.014;2023-05-25T14:15:43;99207.41;;;26.18;33.82
23118;BME280;11728;50.624;6.014;2023-05-25T14:21:04;99216.25;;;25.82;34.11
23118;BME280;11728;50.624;6.014;2023-05-25T14:26:25;99211.72;;;25.83;34.38
23118;BME280;11728;50.624;6.014;2023-05-25T14:31:48;99204.59;;;25.94;34.72
23118;BME280;11728;50.624;6.014;2023-05-25T14:37:10;99204.78;;;26.29;33.88
23118;BME280;11728;50.624;6.014;2023-05-25T14:42:31;99207.53;;;25.65;34.73
23118;BME280;11728;50.624;6.014;2023-05-25T14:47:51;99212.56;;;25.32;33.98
23118;BME280;11728;50.624;6.014;2023-05-25T14:53:12;99201.38;;;25.24;34.96
23118;BME280;11728;50.624;6.014;2023-05-25T14:58:33;99203.84;;;25.27;35.62
23118;BME280;11728;50.624;6.014;2023-05-25T15:03:54;99208.00;;;25.33;35.90
23118;BME280;11728;50.624;6.014;2023-05-25T15:09:15;99203.41;;;25.07;36.20
23118;BME280;11728;50.624;6.014;2023-05-25T15:14:38;99210.53;;;24.95;36.64
23118;BME280;11728;50.624;6.014;2023-05-25T15:20:00;99209.75;;;24.93;35.88
23118;BME280;11728;50.624;6.014;2023-05-25T15:25:21;99213.63;;;24.76;36.56
23118;BME280;11728;50.624;6.014;2023-05-25T15:30:41;99201.97;;;24.75;36.58
23118;BME280;11728;50.624;6.014;2023-05-25T15:36:02;99201.09;;;24.75;36.39
23118;BME280;11728;50.624;6.014;2023-05-25T15:41:23;99202.75;;;24.07;36.74
23118;BME280;11728;50.624;6.014;2023-05-25T15:46:44;99204.91;;;23.73;37.94
23118;BME280;11728;50.624;6.014;2023-05-25T15:52:04;99203.66;;;23.79;38.03
23118;BME280;11728;50.624;6.014;2023-05-25T15:57:26;99211.97;;;23.60;38.11
23118;BME280;11728;50.624;6.014;2023-05-25T16:02:46;99220.41;;;23.40;38.07
23118;BME280;11728;50.624;6.014;2023-05-25T16:08:07;99216.44;;;23.17;38.06
23118;BME280;11728;50.624;6.014;2023-05-25T16:13:29;99208.19;;;22.89;38.95
23118;BME280;11728;50.624;6.014;2023-05-25T16:18:50;99204.09;;;22.82;39.55
23118;BME280;11728;50.624;6.014;2023-05-25T16:24:11;99194.25;;;22.96;39.67
23118;BME280;11728;50.624;6.014;2023-05-25T16:29:31;99205.66;;;22.86;38.59
23118;BME280;11728;50.624;6.014;2023-05-25T16:34:52;99200.84;;;22.60;39.76
23118;BME280;11728;50.624;6.014;2023-05-25T16:40:13;99204.75;;;22.39;39.62
23118;BME280;11728;50.624;6.014;2023-05-25T16:45:34;99204.25;;;22.16;40.30
23118;BME280;11728;50.624;6.014;2023-05-25T16:50:54;99203.41;;;21.98;40.83
23118;BME280;11728;50.624;6.014;2023-05-25T16:56:15;99210.56;;;21.82;41.42
23118;BME280;11728;50.624;6.014;2023-05-25T17:01:36;99206.47;;;21.75;41.25
23118;BME280;11728;50.624;6.014;2023-05-25T17:06:56;99204.16;;;21.51;41.70
23118;BME280;11728;50.624;6.014;2023-05-25T17:12:17;99212.19;;;21.34;41.93
23118;BME280;11728;50.624;6.014;2023-05-25T17:17:38;99198.97;;;21.13;42.29
23118;BME280;11728;50.624;6.014;2023-05-25T17:22:59;99198.03;;;20.97;42.99
23118;BME280;11728;50.624;6.014;2023-05-25T17:28:19;99203.84;;;20.88;43.63
23118;BME280;11728;50.624;6.014;2023-05-25T17:33:40;99206.16;;;20.77;43.15
23118;BME280;11728;50.624;6.014;2023-05-25T17:39:01;99210.78;;;20.55;43.44
23118;BME280;11728;50.624;6.014;2023-05-25T17:44:22;99203.56;;;20.39;45.72
23118;BME280;11728;50.624;6.014;2023-05-25T17:49:42;99203.41;;;20.23;45.71
23118;BME280;11728;50.624;6.014;2023-05-25T17:55:04;99208.03;;;20.02;45.75
23118;BME280;11728;50.624;6.014;2023-05-25T18:00:26;99204.31;;;19.84;46.21
23118;BME280;11728;50.624;6.014;2023-05-25T18:05:47;99201.19;;;19.75;46.47
23118;BME280;11728;50.624;6.014;2023-05-25T18:11:07;99205.63;;;19.56;46.50
23118;BME280;11728;50.624;6.014;2023-05-25T18:16:28;99210.72;;;19.42;46.85
23118;BME280;11728;50.624;6.014;2023-05-25T18:21:49;99215.44;;;19.35;47.24
23118;BME280;11728;50.624;6.014;2023-05-25T18:27:10;99211.50;;;19.24;47.39
23118;BME280;11728;50.624;6.014;2023-05-25T18:32:30;99213.00;;;19.10;47.50
23118;BME280;11728;50.624;6.014;2023-05-25T18:37:51;99212.72;;;18.94;48.13
23118;BME280;11728;50.624;6.014;2023-05-25T18:43:12;99213.28;;;18.81;48.48
23118;BME280;11728;50.624;6.014;2023-05-25T18:48:32;99216.41;;;18.70;48.95
23118;BME280;11728;50.624;6.014;2023-05-25T18:53:54;99221.31;;;18.59;49.14
23118;BME280;11728;50.624;6.014;2023-05-25T18:59:15;99226.38;;;18.44;49.58
23118;BME280;11728;50.624;6.014;2023-05-25T19:04:35;99221.63;;;18.29;49.73
23118;BME280;11728;50.624;6.014;2023-05-25T19:09:57;99222.19;;;18.14;50.11
23118;BME280;11728;50.624;6.014;2023-05-25T19:15:18;99234.34;;;18.00;50.37
23118;BME280;11728;50.624;6.014;2023-05-25T19:20:38;99223.38;;;17.83;50.91
23118;BME280;11728;50.624;6.014;2023-05-25T19:25:59;99222.94;;;17.72;51.17
23118;BME280;11728;50.624;6.014;2023-05-25T19:31:21;99233.25;;;17.58;51.70
23118;BME280;11728;50.624;6.014;2023-05-25T19:36:42;99249.19;;;17.60;52.24
23118;BME280;11728;50.624;6.014;2023-05-25T19:42:03;99249.59;;;17.48;52.66
23118;BME280;11728;50.624;6.014;2023-05-25T19:47:24;99248.41;;;17.32;52.86
23118;BME280;11728;50.624;6.014;2023-05-25T19:52:45;99247.09;;;17.17;53.38
23118;BME280;11728;50.624;6.014;2023-05-25T19:58:06;99259.09;;;17.04;53.85
23118;BME280;11728;50.624;6.014;2023-05-25T20:03:27;99264.75;;;16.95;54.61
23118;BME280;11728;50.624;6.014;2023-05-25T20:08:47;99277.66;;;16.82;54.81
23118;BME280;11728;50.624;6.014;2023-05-25T20:14:08;99269.22;;;16.68;55.53
23118;BME280;11728;50.624;6.014;2023-05-25T20:19:29;99269.50;;;16.59;55.82
23118;BME280;11728;50.624;6.014;2023-05-25T20:24:50;99262.81;;;16.46;56.15
23118;BME280;11728;50.624;6.014;2023-05-25T20:30:12;99263.25;;;16.31;56.99
23118;BME280;11728;50.624;6.014;2023-05-25T20:35:35;99278.78;;;16.15;57.70
23118;BME280;11728;50.624;6.014;2023-05-25T20:40:56;99283.56;;;16.05;58.30
23118;BME280;11728;50.624;6.014;2023-05-25T20:46:16;99288.31;;;15.94;58.53
23118;BME280;11728;50.624;6.014;2023-05-25T20:51:37;99286.06;;;15.79;59.39
23118;BME280;11728;50.624;6.014;2023-05-25T20:56:58;99286.47;;;15.65;60.02
23118;BME280;11728;50.624;6.014;2023-05-25T21:02:21;99295.75;;;15.49;60.36
23118;BME280;11728;50.624;6.014;2023-05-25T21:07:42;99290.91;;;15.32;60.78
23118;BME280;11728;50.624;6.014;2023-05-25T21:13:03;99289.59;;;15.13;61.65
23118;BME280;11728;50.624;6.014;2023-05-25T21:18:23;99293.50;;;14.98;61.85
23118;BME280;11728;50.624;6.014;2023-05-25T21:23:44;99300.97;;;14.83;62.02
23118;BME280;11728;50.624;6.014;2023-05-25T21:29:05;99306.69;;;14.66;62.68
23118;BME280;11728;50.624;6.014;2023-05-25T21:34:27;99300.78;;;14.53;63.02
23118;BME280;11728;50.624;6.014;2023-05-25T21:39:47;99295.78;;;14.38;63.67
23118;BME280;11728;50.624;6.014;2023-05-25T21:45:08;99295.22;;;14.25;64.11
23118;BME280;11728;50.624;6.014;2023-05-25T21:50:29;99299.00;;;14.14;64.92
23118;BME280;11728;50.624;6.014;2023-05-25T21:55:50;99304.50;;;14.02;65.38
23118;BME280;11728;50.624;6.014;2023-05-25T22:01:12;99309.09;;;13.94;65.64
23118;BME280;11728;50.624;6.014;2023-05-25T22:06:33;99306.66;;;13.83;66.34
23118;BME280;11728;50.624;6.014;2023-05-25T22:11:53;99310.41;;;13.74;66.79
23118;BME280;11728;50.624;6.014;2023-05-25T22:17:14;99304.38;;;13.66;66.92
23118;BME280;11728;50.624;6.014;2023-05-25T22:22:36;99308.03;;;13.59;67.53
23118;BME280;11728;50.624;6.014;2023-05-25T22:27:57;99324.09;;;13.51;67.89
23118;BME280;11728;50.624;6.014;2023-05-25T22:33:18;99311.81;;;13.44;68.21
23118;BME280;11728;50.624;6.014;2023-05-25T22:38:39;99318.09;;;13.40;68.38
23118;BME280;11728;50.624;6.014;2023-05-25T22:43:59;99317.38;;;13.32;68.55
23118;BME280;11728;50.624;6.014;2023-05-25T22:49:20;99326.31;;;13.24;68.96
23118;BME280;11728;50.624;6.014;2023-05-25T22:54:40;99324.72;;;13.15;69.06
23118;BME280;11728;50.624;6.014;2023-05-25T23:00:02;99318.72;;;13.03;69.53
23118;BME280;11728;50.624;6.014;2023-05-25T23:05:23;99318.03;;;12.92;69.78
23118;BME280;11728;50.624;6.014;2023-05-25T23:10:44;99320.78;;;12.83;70.37
23118;BME280;11728;50.624;6.014;2023-05-25T23:16:05;99315.59;;;12.77;70.62
23118;BME280;11728;50.624;6.014;2023-05-25T23:21:26;99320.09;;;12.71;70.60
23118;BME280;11728;50.624;6.014;2023-05-25T23:26:46;99317.56;;;12.63;70.85
23118;BME280;11728;50.624;6.014;2023-05-25T23:32:07;99318.56;;;12.55;70.79
23118;BME280;11728;50.624;6.014;2023-05-25T23:37:28;99324.00;;;12.46;71.17
23118;BME280;11728;50.624;6.014;2023-05-25T23:42:49;99315.31;;;12.35;71.19
23118;BME280;11728;50.624;6.014;2023-05-25T23:48:10;99319.84;;;12.24;71.46
23118;BME280;11728;50.624;6.014;2023-05-25T23:53:31;99333.25;;;12.15;71.70
23118;BME280;11728;50.624;6.014;2023-05-25T23:58:52;99332.44;;;12.09;72.00
